createdAt,value
2022-11-18T00:00:57.583Z,4.80
2022-11-18T00:03:25.024Z,5.45
2022-11-18T00:05:55.591Z,4.88
2022-11-18T00:08:24.752Z,4.32
2022-11-18T00:10:52.433Z,5.07
2022-11-18T00:13:37.426Z,4.53
2022-11-18T00:16:05.979Z,4.80
2022-11-18T00:18:33.551Z,4.35
2022-11-18T00:21:02.389Z,4.60
2022-11-18T00:23:31.204Z,4.38
2022-11-18T00:26:02.969Z,4.50
2022-11-18T00:28:31.016Z,5.00
2022-11-18T00:31:02.615Z,5.05
2022-11-18T00:35:54.365Z,4.57
2022-11-18T00:38:21.806Z,4.70
2022-11-18T00:40:50.547Z,4.80
2022-11-18T00:43:17.030Z,5.18
2022-11-18T00:45:44.619Z,4.88
2022-11-18T00:48:12.087Z,4.55
2022-11-18T00:50:39.537Z,5.22
2022-11-18T00:53:06.965Z,4.65
2022-11-18T00:55:34.411Z,4.30
2022-11-18T00:58:03.249Z,4.97
2022-11-18T01:00:30.691Z,4.40
2022-11-18T01:02:58.161Z,5.05
2022-11-18T01:05:25.615Z,4.90
2022-11-18T01:07:53.104Z,5.03
2022-11-18T01:10:20.570Z,4.85
2022-11-18T01:13:05.892Z,5.53
2022-11-18T01:15:40.013Z,4.32
2022-11-18T01:18:07.781Z,5.18
2022-11-18T01:20:35.406Z,5.10
2022-11-18T01:23:02.870Z,5.05
2022-11-18T01:25:30.433Z,4.82
2022-11-18T01:27:57.906Z,5.05
2022-11-18T01:30:25.352Z,4.80
2022-11-18T01:32:54.128Z,5.28
2022-11-18T01:35:21.797Z,5.28
2022-11-18T01:37:49.232Z,5.07
2022-11-18T01:40:16.693Z,5.40
2022-11-18T01:42:44.133Z,5.25
2022-11-18T01:45:24.704Z,5.53
2022-11-18T01:47:56.412Z,5.35
2022-11-18T01:50:23.877Z,5.53
2022-11-18T01:52:51.983Z,6.50
2022-11-18T01:55:21.228Z,5.60
2022-11-18T01:57:48.808Z,5.60
2022-11-18T02:00:16.533Z,6.00
2022-11-18T02:02:43.975Z,4.82
2022-11-18T02:05:12.768Z,4.93
2022-11-18T02:07:41.811Z,5.22
2022-11-18T02:10:10.375Z,5.97
2022-11-18T02:12:37.808Z,5.43
2022-11-18T02:15:06.117Z,5.43
2022-11-18T02:17:39.798Z,5.72
2022-11-18T02:20:32.526Z,5.25
2022-11-18T02:23:48.080Z,4.88
2022-11-18T02:26:53.604Z,5.22
2022-11-18T02:29:25.045Z,5.20
2022-11-18T02:31:56.305Z,5.15
2022-11-18T02:34:32.371Z,5.07
2022-11-18T02:37:01.039Z,5.47
2022-11-18T02:39:32.327Z,5.50
2022-11-18T02:41:59.844Z,4.97
2022-11-18T02:44:28.678Z,5.45
2022-11-18T02:46:58.835Z,5.70
2022-11-18T02:51:54.370Z,5.22
2022-11-18T02:54:21.830Z,5.10
2022-11-18T02:56:49.324Z,5.82
2022-11-18T02:59:19.237Z,6.20
2022-11-18T03:04:16.652Z,5.25
2022-11-18T03:06:46.121Z,5.40
2022-11-18T03:09:15.202Z,4.35
2022-11-18T03:11:47.853Z,5.97
2022-11-18T03:14:20.549Z,5.20
2022-11-18T03:16:54.991Z,5.38
2022-11-18T03:19:25.324Z,5.25
2022-11-18T03:21:56.191Z,5.68
2022-11-18T03:24:25.072Z,5.32
2022-11-18T03:26:53.475Z,4.90
2022-11-18T03:29:22.702Z,5.32
2022-11-18T03:31:51.956Z,4.97
2022-11-18T03:34:21.717Z,4.90
2022-11-18T03:36:52.142Z,5.55
2022-11-18T03:39:20.451Z,5.32
2022-11-18T03:41:50.417Z,5.43
2022-11-18T03:44:20.809Z,6.00
2022-11-18T03:46:49.848Z,4.68
2022-11-18T03:49:20.648Z,5.05
2022-11-18T03:51:50.331Z,5.07
2022-11-18T03:54:19.930Z,5.00
2022-11-18T03:56:48.444Z,4.00
2022-11-18T03:59:17.486Z,5.20
2022-11-18T04:01:48.085Z,5.40
2022-11-18T04:04:15.585Z,5.45
2022-11-18T04:06:46.595Z,5.85
2022-11-18T04:09:16.129Z,5.72
2022-11-18T04:12:03.923Z,5.80
2022-11-18T04:14:31.992Z,5.70
2022-11-18T04:16:59.449Z,6.25
2022-11-18T04:19:26.917Z,5.80
2022-11-18T04:21:55.679Z,6.45
2022-11-18T04:24:23.173Z,5.22
2022-11-18T04:26:50.638Z,5.72
2022-11-18T04:29:18.282Z,5.35
2022-11-18T04:31:45.895Z,5.72
2022-11-18T04:34:13.890Z,5.32
2022-11-18T04:36:41.332Z,6.18
2022-11-18T04:39:10.391Z,6.00
2022-11-18T04:41:55.374Z,6.00
2022-11-18T04:44:22.821Z,6.25
2022-11-18T04:46:50.262Z,6.60
2022-11-18T04:49:18.083Z,5.47
2022-11-18T04:51:45.943Z,5.57
2022-11-18T04:54:14.922Z,5.85
2022-11-18T04:56:48.472Z,5.90
2022-11-18T04:59:17.274Z,5.70
2022-11-18T05:01:45.189Z,5.40
2022-11-18T05:04:13.781Z,6.03
2022-11-18T05:06:41.257Z,6.10
2022-11-18T05:09:08.737Z,5.05
2022-11-18T05:11:55.244Z,5.32
2022-11-18T05:14:22.730Z,5.38
2022-11-18T05:16:50.187Z,5.00
2022-11-18T05:19:18.073Z,5.35
2022-11-18T05:21:45.751Z,5.57
2022-11-18T05:24:13.230Z,4.97
2022-11-18T05:26:42.010Z,4.90
2022-11-18T05:29:09.494Z,5.65
2022-11-18T05:31:36.947Z,5.43
2022-11-18T05:34:04.400Z,5.00
2022-11-18T05:36:31.877Z,5.00
2022-11-18T05:38:59.587Z,5.30
2022-11-18T05:41:44.896Z,5.57
2022-11-18T05:44:13.699Z,4.78
2022-11-18T05:46:41.169Z,6.22
2022-11-18T05:49:08.599Z,4.68
2022-11-18T05:51:36.156Z,4.97
2022-11-18T05:54:04.145Z,5.45
2022-11-18T05:56:34.322Z,5.05
2022-11-18T06:01:32.021Z,6.03
2022-11-18T06:03:59.601Z,4.57
2022-11-18T06:06:27.080Z,6.20
2022-11-18T06:08:56.304Z,5.97
2022-11-18T06:11:23.767Z,4.70
2022-11-18T06:13:53.002Z,5.45
2022-11-18T06:16:21.242Z,5.27
2022-11-18T06:18:50.097Z,4.70
2022-11-18T06:21:17.576Z,5.05
2022-11-18T06:23:45.049Z,4.72
2022-11-18T06:26:14.343Z,5.85
2022-11-18T06:28:41.799Z,5.70
2022-11-18T06:31:09.288Z,5.30
2022-11-18T06:33:36.982Z,4.88
2022-11-18T06:36:06.240Z,4.90
2022-11-18T06:38:33.740Z,5.00
2022-11-18T06:41:01.303Z,4.85
2022-11-18T06:43:41.523Z,5.10
2022-11-18T06:48:54.829Z,5.05
2022-11-18T06:51:23.824Z,6.60
2022-11-18T06:53:51.436Z,5.60
2022-11-18T06:56:19.532Z,4.80
2022-11-18T06:58:46.991Z,6.32
2022-11-18T07:01:15.205Z,5.30
2022-11-18T07:03:42.838Z,5.13
2022-11-18T07:06:12.083Z,6.10
2022-11-18T07:08:41.340Z,6.27
2022-11-18T07:11:09.625Z,5.00
2022-11-18T07:13:42.115Z,5.20
2022-11-18T07:16:12.025Z,5.22
2022-11-18T07:18:40.808Z,4.63
2022-11-18T07:21:09.637Z,4.82
2022-11-18T07:23:37.112Z,6.40
2022-11-18T07:26:06.137Z,5.68
2022-11-18T07:28:33.654Z,5.22
2022-11-18T07:31:02.285Z,4.47
2022-11-18T07:33:29.774Z,5.85
2022-11-18T07:35:57.245Z,4.60
2022-11-18T07:38:24.743Z,6.53
2022-11-18T07:40:52.181Z,5.10
2022-11-18T07:43:20.955Z,4.93
2022-11-18T07:45:48.393Z,5.60
2022-11-18T07:48:15.816Z,5.22
2022-11-18T07:50:47.127Z,5.22
2022-11-18T07:53:14.890Z,5.05
2022-11-18T07:55:42.329Z,4.90
2022-11-18T07:58:09.771Z,4.72
2022-11-18T08:00:38.532Z,5.05
2022-11-18T08:03:06.441Z,5.70
2022-11-18T08:05:33.956Z,4.93
2022-11-18T08:08:01.504Z,5.95
2022-11-18T08:10:28.993Z,5.85
2022-11-18T08:12:57.051Z,5.10
2022-11-18T08:15:24.587Z,5.53
2022-11-18T08:17:53.349Z,4.90
2022-11-18T08:20:20.804Z,5.97
2022-11-18T08:22:48.268Z,5.80
2022-11-18T08:25:15.909Z,5.55
2022-11-18T08:27:43.365Z,6.13
2022-11-18T08:30:12.166Z,4.90
2022-11-18T08:32:40.189Z,4.65
2022-11-18T08:35:11.224Z,5.55
2022-11-18T08:37:39.045Z,4.80
2022-11-18T08:40:07.573Z,6.30
2022-11-18T08:42:35.021Z,4.85
2022-11-18T08:45:02.463Z,4.88
2022-11-18T08:47:29.915Z,5.18
2022-11-18T08:49:57.379Z,5.28
2022-11-18T08:52:26.172Z,4.82
2022-11-18T08:54:53.596Z,4.25
2022-11-18T08:57:21.054Z,4.72
2022-11-18T08:59:48.505Z,4.72
2022-11-18T09:02:19.015Z,5.32
2022-11-18T09:04:47.627Z,5.07
2022-11-18T09:07:15.204Z,4.95
2022-11-18T09:09:44.025Z,5.20
2022-11-18T09:12:14.644Z,5.53
2022-11-18T09:17:30.182Z,4.60
2022-11-18T09:19:57.665Z,4.95
2022-11-18T09:22:25.117Z,4.95
2022-11-18T09:24:53.892Z,4.72
2022-11-18T09:27:21.375Z,4.93
2022-11-18T09:29:48.807Z,4.88
2022-11-18T09:32:16.251Z,4.82
2022-11-18T09:34:43.708Z,5.05
2022-11-18T09:37:12.145Z,5.32
2022-11-18T09:39:39.620Z,5.22
2022-11-18T09:42:15.797Z,6.10
2022-11-18T09:44:49.514Z,4.60
2022-11-18T09:47:23.512Z,4.88
2022-11-18T09:49:50.981Z,5.00
2022-11-18T09:52:19.603Z,5.10
2022-11-18T09:54:47.059Z,5.10
2022-11-18T09:57:16.757Z,5.30
2022-11-18T09:59:44.334Z,5.63
2022-11-18T10:02:29.287Z,6.43
2022-11-18T10:04:56.846Z,4.97
2022-11-18T10:07:28.838Z,6.45
2022-11-18T10:09:56.275Z,5.60
2022-11-18T10:12:28.259Z,5.13
2022-11-18T10:15:03.442Z,5.05
2022-11-18T10:17:36.259Z,5.32
2022-11-18T10:20:16.567Z,5.45
2022-11-18T10:22:47.605Z,6.07
2022-11-18T10:25:16.035Z,5.53
2022-11-18T10:27:45.576Z,5.80
2022-11-18T10:30:14.269Z,4.45
2022-11-18T10:32:54.254Z,6.05
2022-11-18T10:35:25.227Z,5.25
2022-11-18T10:38:07.874Z,6.05
2022-11-18T10:40:36.193Z,5.20
2022-11-18T10:43:04.953Z,5.03
2022-11-18T10:45:32.770Z,5.53
2022-11-18T10:48:02.319Z,5.00
2022-11-18T10:50:34.536Z,4.95
2022-11-18T10:53:02.004Z,5.32
2022-11-18T10:55:29.574Z,6.18
2022-11-18T10:58:02.699Z,5.40
2022-11-18T11:00:35.743Z,5.28
2022-11-18T11:03:16.138Z,7.20
2022-11-18T11:05:43.619Z,5.65
2022-11-18T11:08:37.249Z,5.45
2022-11-18T11:11:05.595Z,6.32
2022-11-18T11:13:33.068Z,6.57
2022-11-18T11:16:03.088Z,5.47
2022-11-18T11:18:43.389Z,5.53
2022-11-18T11:21:12.398Z,7.00
2022-11-18T11:23:39.855Z,6.25
2022-11-18T11:28:59.206Z,5.28
2022-11-18T11:31:30.307Z,6.45
2022-11-18T11:33:58.552Z,6.95
2022-11-18T11:36:32.701Z,6.30
2022-11-18T11:39:05.062Z,5.50
2022-11-18T11:41:38.645Z,6.38
2022-11-18T11:44:28.089Z,6.03
2022-11-18T11:47:19.393Z,6.68
2022-11-18T11:49:53.208Z,5.95
2022-11-18T11:52:26.218Z,6.95
2022-11-18T11:54:56.187Z,5.82
2022-11-18T11:57:28.230Z,7.63
2022-11-18T12:00:00.014Z,6.93
2022-11-18T12:02:45.997Z,7.05
2022-11-18T12:05:18.785Z,6.63
2022-11-18T12:07:48.372Z,6.30
2022-11-18T12:10:37.901Z,6.65
2022-11-18T12:13:16.869Z,6.60
2022-11-18T12:15:49.421Z,5.88
2022-11-18T12:18:20.928Z,5.72
2022-11-18T12:20:48.829Z,8.00
2022-11-18T12:23:18.431Z,7.63
2022-11-18T12:25:59.635Z,5.05
2022-11-18T12:28:32.066Z,6.38
2022-11-18T12:31:28.577Z,7.18
2022-11-18T12:33:58.326Z,6.38
2022-11-18T12:36:26.821Z,7.72
2022-11-18T12:38:54.353Z,6.85
2022-11-18T12:42:12.696Z,7.05
2022-11-18T12:44:40.183Z,7.72
2022-11-18T12:47:07.765Z,7.38
2022-11-18T12:50:11.018Z,6.70
2022-11-18T12:52:54.470Z,6.53
2022-11-18T12:55:27.106Z,6.53
2022-11-18T12:57:54.584Z,6.38
2022-11-18T13:00:55.126Z,5.70
2022-11-18T13:03:24.701Z,6.03
2022-11-18T13:05:58.939Z,6.30
2022-11-18T13:08:26.458Z,6.32
2022-11-18T13:11:14.701Z,7.07
2022-11-18T13:13:42.357Z,6.63
2022-11-18T13:16:37.884Z,6.18
2022-11-18T13:19:05.648Z,6.68
2022-11-18T13:22:06.416Z,6.30
2022-11-18T13:24:44.312Z,6.25
2022-11-18T13:27:11.848Z,6.30
2022-11-18T13:29:40.672Z,6.85
2022-11-18T13:32:16.556Z,5.93
2022-11-18T13:34:46.500Z,6.75
2022-11-18T13:37:18.132Z,6.40
2022-11-18T13:39:45.804Z,6.18
2022-11-18T13:42:17.462Z,6.18
2022-11-18T13:44:46.315Z,6.35
2022-11-18T13:47:20.232Z,6.13
2022-11-18T13:49:51.249Z,6.45
2022-11-18T13:52:23.515Z,6.55
2022-11-18T13:54:51.172Z,7.40
2022-11-18T13:57:20.681Z,5.97
2022-11-18T13:59:48.442Z,6.40
2022-11-18T14:02:15.910Z,6.40
2022-11-18T14:04:50.639Z,6.10
2022-11-18T14:07:26.390Z,8.13
2022-11-18T14:09:55.211Z,8.23
2022-11-18T14:12:24.093Z,7.90
2022-11-18T14:14:51.555Z,8.65
2022-11-18T14:17:20.545Z,7.55
2022-11-18T14:19:48.832Z,8.25
2022-11-18T14:22:18.863Z,6.93
2022-11-18T14:24:54.829Z,9.18
2022-11-18T14:27:38.614Z,11.20
2022-11-18T14:30:32.553Z,9.10
2022-11-18T14:33:24.158Z,9.13
2022-11-18T14:35:56.614Z,7.93
2022-11-18T14:43:45.848Z,8.17
2022-11-18T14:46:15.569Z,7.25
2022-11-18T14:48:43.036Z,7.30
2022-11-18T14:51:13.257Z,7.70
2022-11-18T14:53:40.781Z,7.15
2022-11-18T14:56:12.955Z,7.20
2022-11-18T14:58:41.799Z,6.80
2022-11-18T15:01:11.134Z,7.95
2022-11-18T15:03:38.585Z,6.40
2022-11-18T15:06:11.170Z,6.97
2022-11-18T15:08:38.652Z,8.48
2022-11-18T15:11:06.312Z,6.40
2022-11-18T15:13:33.812Z,6.35
2022-11-18T15:16:03.121Z,7.10
2022-11-18T15:18:30.602Z,6.25
2022-11-18T15:20:58.284Z,7.30
2022-11-18T15:23:29.634Z,6.80
2022-11-18T15:25:57.420Z,6.40
2022-11-18T15:28:24.894Z,6.75
2022-11-18T15:30:52.389Z,6.53
2022-11-18T15:33:21.198Z,6.88
2022-11-18T15:35:48.718Z,6.47
2022-11-18T15:38:16.197Z,8.00
2022-11-18T15:40:43.647Z,6.38
2022-11-18T15:43:11.116Z,6.47
2022-11-18T15:45:38.570Z,7.03
2022-11-18T15:48:06.522Z,6.25
2022-11-18T15:50:35.292Z,6.35
2022-11-18T15:53:02.751Z,7.22
2022-11-18T15:55:30.196Z,7.53
2022-11-18T15:57:57.638Z,6.82
2022-11-18T16:00:25.097Z,7.70
2022-11-18T16:02:52.553Z,6.40
2022-11-18T16:05:19.991Z,6.63
2022-11-18T16:07:54.378Z,7.35
2022-11-18T16:10:39.923Z,6.68
2022-11-18T16:13:07.386Z,6.82
2022-11-18T16:15:44.311Z,7.05
2022-11-18T16:18:11.834Z,7.13
2022-11-18T16:20:39.284Z,7.60
2022-11-18T16:23:08.149Z,7.72
2022-11-18T16:25:35.647Z,7.15
2022-11-18T16:28:07.444Z,6.80
2022-11-18T16:30:53.199Z,7.53
2022-11-18T16:33:20.639Z,6.90
2022-11-18T16:35:48.487Z,8.02
2022-11-18T16:38:17.294Z,8.07
2022-11-18T16:40:44.736Z,7.43
2022-11-18T16:43:12.185Z,8.25
2022-11-18T16:45:39.635Z,7.80
2022-11-18T16:48:07.425Z,8.07
2022-11-18T16:50:34.944Z,7.97
2022-11-18T16:53:02.392Z,9.05
2022-11-18T16:55:31.635Z,8.50
2022-11-18T16:57:59.080Z,8.03
2022-11-18T17:00:51.366Z,8.10
2022-11-18T17:03:13.972Z,8.45
2022-11-18T17:05:41.397Z,8.50
2022-11-18T17:08:08.869Z,8.18
2022-11-18T17:10:37.650Z,8.38
2022-11-18T17:13:05.135Z,8.48
2022-11-18T17:15:32.596Z,8.90
2022-11-18T17:18:00.084Z,8.75
2022-11-18T17:20:27.574Z,10.15
2022-11-18T17:22:55.051Z,8.55
2022-11-18T17:25:22.529Z,9.27
2022-11-18T17:27:51.335Z,9.25
2022-11-18T17:30:18.970Z,8.77
2022-11-18T17:32:46.434Z,9.20
2022-11-18T17:35:13.964Z,8.73
2022-11-18T17:37:41.396Z,9.45
2022-11-18T17:40:10.423Z,8.55
2022-11-18T17:42:37.892Z,8.68
2022-11-18T17:45:08.219Z,9.55
2022-11-18T17:47:35.911Z,9.52
2022-11-18T17:50:03.420Z,9.25
2022-11-18T17:52:30.888Z,9.77
2022-11-18T17:54:58.357Z,9.18
2022-11-18T17:57:25.916Z,8.88
2022-11-18T17:59:53.398Z,9.80
2022-11-18T18:02:22.185Z,9.25
2022-11-18T18:04:49.645Z,9.02
2022-11-18T18:07:17.159Z,9.63
2022-11-18T18:09:44.686Z,9.60
2022-11-18T18:12:30.001Z,10.13
2022-11-18T18:14:57.458Z,10.65
2022-11-18T18:17:26.242Z,10.65
2022-11-18T18:19:53.696Z,11.27
2022-11-18T18:22:21.129Z,10.63
2022-11-18T18:24:48.601Z,11.20
2022-11-18T18:27:16.032Z,11.18
2022-11-18T18:29:43.501Z,11.65
2022-11-18T18:32:10.941Z,11.45
2022-11-18T18:34:39.723Z,12.25
2022-11-18T18:37:07.161Z,12.13
2022-11-18T18:39:34.636Z,11.02
2022-11-18T18:42:03.468Z,11.98
2022-11-18T18:44:51.290Z,11.85
2022-11-18T18:47:18.386Z,13.02
2022-11-18T18:49:47.171Z,12.23
2022-11-18T18:52:14.601Z,12.75
2022-11-18T18:54:42.063Z,12.20
2022-11-18T18:57:09.491Z,12.00
2022-11-18T18:59:36.969Z,13.00
2022-11-18T19:02:04.708Z,12.40
2022-11-18T19:04:32.244Z,13.02
2022-11-18T19:07:01.122Z,12.52
2022-11-18T19:09:28.781Z,12.48
2022-11-18T19:12:13.957Z,14.00
2022-11-18T19:14:41.619Z,14.00
2022-11-18T19:20:14.173Z,13.25
2022-11-18T19:22:42.935Z,13.43
2022-11-18T19:25:10.866Z,13.93
2022-11-18T19:27:39.971Z,13.18
2022-11-18T19:30:08.683Z,12.75
2022-11-18T19:32:36.406Z,13.88
2022-11-18T19:35:04.745Z,15.50
2022-11-18T19:37:32.267Z,13.80
2022-11-18T19:40:07.126Z,15.07
2022-11-18T19:42:37.946Z,13.05
2022-11-18T19:45:05.958Z,14.50
2022-11-18T19:47:33.401Z,13.23
2022-11-18T19:50:01.455Z,14.55
2022-11-18T19:52:29.209Z,13.13
2022-11-18T19:54:57.901Z,14.00
2022-11-18T19:57:26.777Z,14.60
2022-11-18T19:59:54.234Z,14.13
2022-11-18T20:02:22.072Z,14.90
2022-11-18T20:05:03.491Z,13.75
2022-11-18T20:07:31.081Z,13.93
2022-11-18T20:09:58.580Z,14.20
2022-11-18T20:12:27.368Z,21.58
2022-11-18T20:14:54.831Z,20.42
2022-11-18T20:17:22.303Z,18.63
2022-11-18T20:19:49.778Z,17.50
2022-11-18T20:22:17.241Z,17.88
2022-11-18T20:24:44.707Z,16.52
2022-11-18T20:27:13.356Z,16.95
2022-11-18T20:29:42.123Z,17.10
2022-11-18T20:32:09.560Z,17.80
2022-11-18T20:34:39.723Z,16.30
2022-11-18T20:39:34.467Z,17.23
2022-11-18T20:42:19.683Z,16.17
2022-11-18T20:44:48.469Z,16.55
2022-11-18T20:47:15.914Z,16.73
2022-11-18T20:49:43.375Z,17.92
2022-11-18T20:52:10.866Z,16.25
2022-11-18T20:54:38.330Z,17.00
2022-11-18T20:57:06.034Z,16.55
2022-11-18T20:59:33.496Z,16.63
2022-11-18T21:02:03.156Z,16.52
2022-11-18T21:04:30.615Z,16.05
2022-11-18T21:07:01.378Z,16.55
2022-11-18T21:09:31.751Z,17.95
2022-11-18T21:11:59.314Z,17.48
2022-11-18T21:14:25.910Z,16.58
2022-11-18T21:16:53.933Z,18.48
2022-11-18T21:19:22.785Z,17.05
2022-11-18T21:21:52.262Z,17.17
2022-11-18T21:24:20.329Z,16.40
2022-11-18T21:26:48.683Z,16.35
2022-11-18T21:29:17.168Z,17.67
2022-11-18T21:31:45.708Z,16.33
2022-11-18T21:34:13.235Z,16.42
2022-11-18T21:36:45.880Z,16.88
2022-11-18T21:39:15.421Z,17.40
2022-11-18T21:41:42.885Z,16.48
2022-11-18T21:44:10.874Z,17.23
2022-11-18T21:46:38.999Z,17.10
2022-11-18T21:49:06.673Z,17.10
2022-11-18T21:51:34.319Z,16.83
2022-11-18T21:54:03.139Z,18.23
2022-11-18T21:56:31.552Z,17.83
2022-11-18T21:58:59.726Z,16.70
2022-11-18T22:01:28.044Z,17.95
2022-11-18T22:03:56.185Z,16.85
2022-11-18T22:06:24.141Z,17.83
2022-11-18T22:08:51.617Z,17.20
2022-11-18T22:11:22.267Z,17.80
2022-11-18T22:13:50.419Z,18.02
2022-11-18T22:16:18.725Z,16.75
2022-11-18T22:18:53.024Z,17.05
2022-11-18T22:21:21.593Z,16.25
2022-11-18T22:23:49.075Z,17.63
2022-11-18T22:26:17.392Z,17.58
2022-11-18T22:28:46.188Z,16.70
2022-11-18T22:31:14.414Z,17.27
2022-11-18T22:33:41.986Z,17.42
2022-11-18T22:36:10.835Z,17.60
2022-11-18T22:38:38.299Z,18.67
2022-11-18T22:41:06.480Z,17.23
2022-11-18T22:43:33.633Z,17.42
2022-11-18T22:46:03.199Z,17.65
2022-11-18T22:48:30.699Z,18.60
2022-11-18T22:50:59.600Z,18.33
2022-11-18T22:53:27.073Z,18.90
2022-11-18T22:56:02.048Z,18.40
2022-11-18T22:58:29.480Z,17.17
2022-11-18T23:01:00.512Z,18.60
2022-11-18T23:03:29.297Z,18.33
2022-11-18T23:05:56.782Z,17.75
2022-11-18T23:08:24.455Z,17.52
2022-11-18T23:10:51.939Z,17.60
2022-11-18T23:13:48.443Z,17.00
2022-11-18T23:16:16.027Z,17.05
2022-11-18T23:18:45.439Z,17.95
2022-11-18T23:21:12.870Z,17.75
2022-11-18T23:23:40.349Z,17.75
2022-11-18T23:26:08.570Z,16.10
2022-11-18T23:28:36.077Z,17.92
2022-11-18T23:31:07.221Z,17.90
2022-11-18T23:33:34.775Z,16.50
2022-11-18T23:36:03.719Z,17.70
2022-11-18T23:38:32.056Z,16.83
2022-11-18T23:41:00.226Z,18.42
2022-11-18T23:43:27.889Z,16.45
2022-11-18T23:45:56.576Z,17.50
2022-11-18T23:48:24.339Z,18.20
2022-11-18T23:50:55.395Z,17.60
2022-11-18T23:53:24.245Z,17.23
2022-11-18T23:55:51.819Z,16.17
2022-11-18T23:58:19.327Z,16.50
